sensor_id;sensor_type;location;lat;lon;timestamp;P1;durP1;ratioP1;P2;durP2;ratioP2
10311;SDS011;5201;48.776;9.128;2023-05-01T00:01:04;3.37;;;2.93;;
10311;SDS011;5201;48.776;9.128;2023-05-01T00:03:30;7.00;;;2.97;;
10311;SDS011;5201;48.776;9.128;2023-05-01T00:06:00;8.53;;;3.63;;
10311;SDS011;5201;48.776;9.128;2023-05-01T00:08:27;4.23;;;3.50;;
10311;SDS011;5201;48.776;9.128;2023-05-01T00:10:53;9.20;;;3.60;;
10311;SDS011;5201;48.776;9.128;2023-05-01T00:13:18;3.13;;;2.83;;
10311;SDS011;5201;48.776;9.128;2023-05-01T00:15:46;5.23;;;3.17;;
10311;SDS011;5201;48.776;9.128;2023-05-01T00:18:12;4.20;;;3.03;;
10311;SDS011;5201;48.776;9.128;2023-05-01T00:20:37;7.07;;;3.80;;
10311;SDS011;5201;48.776;9.128;2023-05-01T00:23:03;5.50;;;3.60;;
10311;SDS011;5201;48.776;9.128;2023-05-01T00:25:29;8.17;;;3.97;;
10311;SDS011;5201;48.776;9.128;2023-05-01T00:27:55;4.33;;;2.90;;
10311;SDS011;5201;48.776;9.128;2023-05-01T00:30:21;3.43;;;3.13;;
10311;SDS011;5201;48.776;9.128;2023-05-01T00:32:46;7.10;;;4.00;;
10311;SDS011;5201;48.776;9.128;2023-05-01T00:35:12;3.97;;;3.33;;
10311;SDS011;5201;48.776;9.128;2023-05-01T00:37:37;8.67;;;3.63;;
10311;SDS011;5201;48.776;9.128;2023-05-01T00:40:03;3.80;;;3.23;;
10311;SDS011;5201;48.776;9.128;2023-05-01T00:42:33;3.97;;;3.47;;
10311;SDS011;5201;48.776;9.128;2023-05-01T00:45:03;3.63;;;3.33;;
10311;SDS011;5201;48.776;9.128;2023-05-01T00:47:30;4.67;;;3.50;;
10311;SDS011;5201;48.776;9.128;2023-05-01T00:49:58;3.40;;;3.10;;
10311;SDS011;5201;48.776;9.128;2023-05-01T00:52:24;4.13;;;3.30;;
10311;SDS011;5201;48.776;9.128;2023-05-01T00:54:50;3.70;;;3.40;;
10311;SDS011;5201;48.776;9.128;2023-05-01T00:57:19;4.93;;;3.73;;
10311;SDS011;5201;48.776;9.128;2023-05-01T00:59:45;4.80;;;3.67;;
10311;SDS011;5201;48.776;9.128;2023-05-01T01:02:12;4.07;;;3.33;;
10311;SDS011;5201;48.776;9.128;2023-05-01T01:04:39;4.87;;;3.57;;
10311;SDS011;5201;48.776;9.128;2023-05-01T01:15:44;4.00;;;3.17;;
10311;SDS011;5201;48.776;9.128;2023-05-01T01:18:42;5.27;;;3.50;;
10311;SDS011;5201;48.776;9.128;2023-05-01T01:21:31;5.57;;;3.57;;
10311;SDS011;5201;48.776;9.128;2023-05-01T01:35:15;4.43;;;2.90;;
10311;SDS011;5201;48.776;9.128;2023-05-01T01:37:49;3.53;;;3.13;;
10311;SDS011;5201;48.776;9.128;2023-05-01T01:40:23;3.50;;;3.20;;
10311;SDS011;5201;48.776;9.128;2023-05-01T01:42:54;7.37;;;2.63;;
10311;SDS011;5201;48.776;9.128;2023-05-01T01:45:36;2.60;;;2.37;;
10311;SDS011;5201;48.776;9.128;2023-05-01T01:48:11;3.57;;;3.27;;
10311;SDS011;5201;48.776;9.128;2023-05-01T01:50:40;3.23;;;2.93;;
10311;SDS011;5201;48.776;9.128;2023-05-01T01:53:08;5.27;;;3.10;;
10311;SDS011;5201;48.776;9.128;2023-05-01T01:55:37;5.80;;;3.13;;
10311;SDS011;5201;48.776;9.128;2023-05-01T01:58:05;3.83;;;3.40;;
10311;SDS011;5201;48.776;9.128;2023-05-01T02:00:32;3.73;;;3.33;;
10311;SDS011;5201;48.776;9.128;2023-05-01T02:02:59;5.93;;;3.20;;
10311;SDS011;5201;48.776;9.128;2023-05-01T02:05:26;4.70;;;3.93;;
10311;SDS011;5201;48.776;9.128;2023-05-01T02:07:52;3.73;;;3.33;;
10311;SDS011;5201;48.776;9.128;2023-05-01T02:10:19;4.17;;;3.17;;
10311;SDS011;5201;48.776;9.128;2023-05-01T02:12:47;5.70;;;3.47;;
10311;SDS011;5201;48.776;9.128;2023-05-01T02:15:15;3.90;;;3.47;;
10311;SDS011;5201;48.776;9.128;2023-05-01T02:17:43;4.80;;;3.23;;
10311;SDS011;5201;48.776;9.128;2023-05-01T02:20:09;6.07;;;3.57;;
10311;SDS011;5201;48.776;9.128;2023-05-01T02:22:37;4.77;;;3.27;;
10311;SDS011;5201;48.776;9.128;2023-05-01T02:25:08;5.47;;;3.33;;
10311;SDS011;5201;48.776;9.128;2023-05-01T02:27:39;3.77;;;3.03;;
10311;SDS011;5201;48.776;9.128;2023-05-01T02:30:11;3.17;;;2.87;;
10311;SDS011;5201;48.776;9.128;2023-05-01T02:32:36;3.43;;;2.90;;
10311;SDS011;5201;48.776;9.128;2023-05-01T02:35:02;5.80;;;3.87;;
10311;SDS011;5201;48.776;9.128;2023-05-01T02:37:28;5.70;;;3.43;;
10311;SDS011;5201;48.776;9.128;2023-05-01T02:39:55;3.90;;;3.23;;
10311;SDS011;5201;48.776;9.128;2023-05-01T02:42:21;3.07;;;2.80;;
10311;SDS011;5201;48.776;9.128;2023-05-01T02:44:50;6.33;;;2.90;;
10311;SDS011;5201;48.776;9.128;2023-05-01T02:47:21;6.80;;;5.27;;
10311;SDS011;5201;48.776;9.128;2023-05-01T02:49:48;3.77;;;3.27;;
10311;SDS011;5201;48.776;9.128;2023-05-01T02:52:15;4.40;;;3.60;;
10311;SDS011;5201;48.776;9.128;2023-05-01T02:54:43;3.50;;;3.20;;
10311;SDS011;5201;48.776;9.128;2023-05-01T02:57:09;5.10;;;3.77;;
10311;SDS011;5201;48.776;9.128;2023-05-01T02:59:35;7.37;;;3.67;;
10311;SDS011;5201;48.776;9.128;2023-05-01T03:02:02;3.70;;;3.30;;
10311;SDS011;5201;48.776;9.128;2023-05-01T03:04:27;4.27;;;3.47;;
10311;SDS011;5201;48.776;9.128;2023-05-01T03:06:53;6.27;;;3.73;;
10311;SDS011;5201;48.776;9.128;2023-05-01T03:09:20;4.90;;;3.20;;
10311;SDS011;5201;48.776;9.128;2023-05-01T03:11:46;4.13;;;3.10;;
10311;SDS011;5201;48.776;9.128;2023-05-01T03:14:11;3.80;;;3.47;;
10311;SDS011;5201;48.776;9.128;2023-05-01T03:16:37;7.07;;;3.93;;
10311;SDS011;5201;48.776;9.128;2023-05-01T03:19:03;4.20;;;3.80;;
10311;SDS011;5201;48.776;9.128;2023-05-01T03:21:29;3.40;;;3.03;;
10311;SDS011;5201;48.776;9.128;2023-05-01T03:23:56;3.40;;;3.10;;
10311;SDS011;5201;48.776;9.128;2023-05-01T03:26:21;7.93;;;3.50;;
10311;SDS011;5201;48.776;9.128;2023-05-01T03:28:47;5.47;;;3.90;;
10311;SDS011;5201;48.776;9.128;2023-05-01T03:31:12;6.60;;;3.63;;
10311;SDS011;5201;48.776;9.128;2023-05-01T03:33:38;3.87;;;2.93;;
10311;SDS011;5201;48.776;9.128;2023-05-01T03:36:04;6.03;;;3.00;;
10311;SDS011;5201;48.776;9.128;2023-05-01T03:38:31;4.77;;;3.40;;
10311;SDS011;5201;48.776;9.128;2023-05-01T03:40:57;4.17;;;3.77;;
10311;SDS011;5201;48.776;9.128;2023-05-01T03:43:23;3.90;;;3.50;;
10311;SDS011;5201;48.776;9.128;2023-05-01T03:45:49;4.10;;;3.60;;
10311;SDS011;5201;48.776;9.128;2023-05-01T03:48:16;3.50;;;3.10;;
10311;SDS011;5201;48.776;9.128;2023-05-01T03:50:43;4.57;;;3.80;;
10311;SDS011;5201;48.776;9.128;2023-05-01T03:53:08;4.37;;;3.50;;
10311;SDS011;5201;48.776;9.128;2023-05-01T03:55:34;4.67;;;4.00;;
10311;SDS011;5201;48.776;9.128;2023-05-01T03:58:00;5.93;;;3.97;;
10311;SDS011;5201;48.776;9.128;2023-05-01T04:00:26;4.80;;;3.63;;
10311;SDS011;5201;48.776;9.128;2023-05-01T04:02:52;5.17;;;3.70;;
10311;SDS011;5201;48.776;9.128;2023-05-01T04:05:18;5.43;;;3.33;;
10311;SDS011;5201;48.776;9.128;2023-05-01T04:07:45;5.03;;;3.40;;
10311;SDS011;5201;48.776;9.128;2023-05-01T04:10:11;4.57;;;3.43;;
10311;SDS011;5201;48.776;9.128;2023-05-01T04:12:37;5.33;;;3.23;;
10311;SDS011;5201;48.776;9.128;2023-05-01T04:15:02;4.23;;;3.83;;
10311;SDS011;5201;48.776;9.128;2023-05-01T04:17:28;4.70;;;3.50;;
10311;SDS011;5201;48.776;9.128;2023-05-01T04:19:54;6.13;;;3.60;;
10311;SDS011;5201;48.776;9.128;2023-05-01T04:22:20;3.50;;;3.20;;
10311;SDS011;5201;48.776;9.128;2023-05-01T04:24:47;6.37;;;3.93;;
10311;SDS011;5201;48.776;9.128;2023-05-01T04:27:13;4.93;;;3.53;;
10311;SDS011;5201;48.776;9.128;2023-05-01T04:29:38;4.53;;;3.60;;
10311;SDS011;5201;48.776;9.128;2023-05-01T04:32:05;6.77;;;3.53;;
10311;SDS011;5201;48.776;9.128;2023-05-01T04:34:31;4.13;;;3.57;;
10311;SDS011;5201;48.776;9.128;2023-05-01T04:36:57;5.90;;;3.17;;
10311;SDS011;5201;48.776;9.128;2023-05-01T04:39:23;8.77;;;3.80;;
10311;SDS011;5201;48.776;9.128;2023-05-01T04:41:48;3.73;;;3.20;;
10311;SDS011;5201;48.776;9.128;2023-05-01T04:44:14;5.60;;;2.90;;
10311;SDS011;5201;48.776;9.128;2023-05-01T04:46:40;4.03;;;3.23;;
10311;SDS011;5201;48.776;9.128;2023-05-01T04:49:05;6.40;;;3.03;;
10311;SDS011;5201;48.776;9.128;2023-05-01T04:51:32;4.00;;;3.60;;
10311;SDS011;5201;48.776;9.128;2023-05-01T04:53:57;5.00;;;3.70;;
10311;SDS011;5201;48.776;9.128;2023-05-01T04:56:23;5.57;;;3.50;;
10311;SDS011;5201;48.776;9.128;2023-05-01T04:58:50;4.70;;;3.43;;
10311;SDS011;5201;48.776;9.128;2023-05-01T05:01:15;4.30;;;3.53;;
10311;SDS011;5201;48.776;9.128;2023-05-01T05:03:41;4.07;;;3.67;;
10311;SDS011;5201;48.776;9.128;2023-05-01T05:06:07;4.77;;;3.40;;
10311;SDS011;5201;48.776;9.128;2023-05-01T05:08:33;5.57;;;3.60;;
10311;SDS011;5201;48.776;9.128;2023-05-01T05:10:58;4.73;;;3.80;;
10311;SDS011;5201;48.776;9.128;2023-05-01T05:13:25;3.97;;;3.63;;
10311;SDS011;5201;48.776;9.128;2023-05-01T05:15:50;5.70;;;3.80;;
10311;SDS011;5201;48.776;9.128;2023-05-01T05:18:16;3.63;;;3.27;;
10311;SDS011;5201;48.776;9.128;2023-05-01T05:20:42;5.93;;;3.37;;
10311;SDS011;5201;48.776;9.128;2023-05-01T05:23:08;4.20;;;3.43;;
10311;SDS011;5201;48.776;9.128;2023-05-01T05:25:34;4.97;;;3.57;;
10311;SDS011;5201;48.776;9.128;2023-05-01T05:27:59;6.17;;;3.50;;
10311;SDS011;5201;48.776;9.128;2023-05-01T05:30:25;3.93;;;3.33;;
10311;SDS011;5201;48.776;9.128;2023-05-01T05:32:51;5.03;;;3.13;;
10311;SDS011;5201;48.776;9.128;2023-05-01T05:35:17;5.40;;;3.23;;
10311;SDS011;5201;48.776;9.128;2023-05-01T05:37:42;5.73;;;3.47;;
10311;SDS011;5201;48.776;9.128;2023-05-01T05:40:08;4.43;;;3.47;;
10311;SDS011;5201;48.776;9.128;2023-05-01T05:42:34;6.47;;;4.20;;
10311;SDS011;5201;48.776;9.128;2023-05-01T05:45:00;5.00;;;3.87;;
10311;SDS011;5201;48.776;9.128;2023-05-01T05:47:25;4.03;;;3.67;;
10311;SDS011;5201;48.776;9.128;2023-05-01T05:49:51;4.87;;;4.07;;
10311;SDS011;5201;48.776;9.128;2023-05-01T05:52:19;5.90;;;4.13;;
10311;SDS011;5201;48.776;9.128;2023-05-01T05:54:45;6.63;;;4.17;;
10311;SDS011;5201;48.776;9.128;2023-05-01T05:57:10;6.93;;;4.37;;
10311;SDS011;5201;48.776;9.128;2023-05-01T05:59:36;4.17;;;3.73;;
10311;SDS011;5201;48.776;9.128;2023-05-01T06:02:02;4.13;;;3.73;;
10311;SDS011;5201;48.776;9.128;2023-05-01T06:04:28;3.90;;;3.60;;
10311;SDS011;5201;48.776;9.128;2023-05-01T06:06:53;5.40;;;4.33;;
10311;SDS011;5201;48.776;9.128;2023-05-01T06:09:19;7.13;;;4.10;;
10311;SDS011;5201;48.776;9.128;2023-05-01T06:11:45;4.97;;;3.63;;
10311;SDS011;5201;48.776;9.128;2023-05-01T06:14:12;7.07;;;3.63;;
10311;SDS011;5201;48.776;9.128;2023-05-01T06:16:38;6.90;;;4.17;;
10311;SDS011;5201;48.776;9.128;2023-05-01T06:19:04;6.97;;;3.43;;
10311;SDS011;5201;48.776;9.128;2023-05-01T06:21:30;6.77;;;4.00;;
10311;SDS011;5201;48.776;9.128;2023-05-01T06:23:58;3.50;;;3.20;;
10311;SDS011;5201;48.776;9.128;2023-05-01T06:26:24;5.23;;;4.10;;
10311;SDS011;5201;48.776;9.128;2023-05-01T06:28:50;5.63;;;4.13;;
10311;SDS011;5201;48.776;9.128;2023-05-01T06:31:15;5.77;;;4.00;;
10311;SDS011;5201;48.776;9.128;2023-05-01T06:33:41;4.43;;;3.93;;
10311;SDS011;5201;48.776;9.128;2023-05-01T06:36:06;4.37;;;3.50;;
10311;SDS011;5201;48.776;9.128;2023-05-01T06:38:32;4.10;;;3.70;;
10311;SDS011;5201;48.776;9.128;2023-05-01T06:40:58;5.83;;;4.03;;
10311;SDS011;5201;48.776;9.128;2023-05-01T06:43:24;4.50;;;3.90;;
10311;SDS011;5201;48.776;9.128;2023-05-01T06:45:54;6.67;;;4.43;;
10311;SDS011;5201;48.776;9.128;2023-05-01T06:48:20;4.73;;;3.80;;
10311;SDS011;5201;48.776;9.128;2023-05-01T06:50:46;4.17;;;3.77;;
10311;SDS011;5201;48.776;9.128;2023-05-01T06:53:11;6.77;;;5.27;;
10311;SDS011;5201;48.776;9.128;2023-05-01T06:55:37;4.80;;;3.87;;
10311;SDS011;5201;48.776;9.128;2023-05-01T06:58:03;4.40;;;3.20;;
10311;SDS011;5201;48.776;9.128;2023-05-01T07:00:29;5.30;;;3.10;;
10311;SDS011;5201;48.776;9.128;2023-05-01T07:02:55;6.37;;;3.37;;
10311;SDS011;5201;48.776;9.128;2023-05-01T07:05:20;3.67;;;2.90;;
10311;SDS011;5201;48.776;9.128;2023-05-01T07:07:46;6.07;;;3.30;;
10311;SDS011;5201;48.776;9.128;2023-05-01T07:10:13;4.50;;;3.00;;
10311;SDS011;5201;48.776;9.128;2023-05-01T07:12:39;5.67;;;3.50;;
10311;SDS011;5201;48.776;9.128;2023-05-01T07:15:05;4.27;;;3.07;;
10311;SDS011;5201;48.776;9.128;2023-05-01T07:17:31;3.53;;;3.10;;
10311;SDS011;5201;48.776;9.128;2023-05-01T07:19:57;7.77;;;3.10;;
10311;SDS011;5201;48.776;9.128;2023-05-01T07:22:23;5.70;;;3.03;;
10311;SDS011;5201;48.776;9.128;2023-05-01T07:24:48;3.47;;;3.10;;
10311;SDS011;5201;48.776;9.128;2023-05-01T07:27:14;8.27;;;5.27;;
10311;SDS011;5201;48.776;9.128;2023-05-01T07:29:39;7.80;;;4.43;;
10311;SDS011;5201;48.776;9.128;2023-05-01T07:32:05;6.67;;;3.63;;
10311;SDS011;5201;48.776;9.128;2023-05-01T07:34:31;3.77;;;2.67;;
10311;SDS011;5201;48.776;9.128;2023-05-01T07:36:57;6.70;;;3.60;;
10311;SDS011;5201;48.776;9.128;2023-05-01T07:39:22;3.50;;;3.10;;
10311;SDS011;5201;48.776;9.128;2023-05-01T07:41:48;6.03;;;3.57;;
10311;SDS011;5201;48.776;9.128;2023-05-01T07:44:14;6.77;;;3.63;;
10311;SDS011;5201;48.776;9.128;2023-05-01T07:46:39;4.07;;;3.67;;
10311;SDS011;5201;48.776;9.128;2023-05-01T07:49:05;4.87;;;3.17;;
10311;SDS011;5201;48.776;9.128;2023-05-01T07:51:31;5.67;;;4.07;;
10311;SDS011;5201;48.776;9.128;2023-05-01T07:53:57;3.67;;;3.37;;
10311;SDS011;5201;48.776;9.128;2023-05-01T07:56:27;4.07;;;3.07;;
10311;SDS011;5201;48.776;9.128;2023-05-01T07:58:53;4.67;;;3.60;;
10311;SDS011;5201;48.776;9.128;2023-05-01T08:01:18;5.57;;;3.63;;
10311;SDS011;5201;48.776;9.128;2023-05-01T08:03:45;5.70;;;4.73;;
10311;SDS011;5201;48.776;9.128;2023-05-01T08:06:10;5.47;;;4.10;;
10311;SDS011;5201;48.776;9.128;2023-05-01T08:08:36;4.23;;;3.80;;
10311;SDS011;5201;48.776;9.128;2023-05-01T08:11:01;3.70;;;3.40;;
10311;SDS011;5201;48.776;9.128;2023-05-01T08:13:27;4.93;;;3.47;;
10311;SDS011;5201;48.776;9.128;2023-05-01T08:15:52;6.10;;;3.33;;
10311;SDS011;5201;48.776;9.128;2023-05-01T08:18:18;9.53;;;4.93;;
10311;SDS011;5201;48.776;9.128;2023-05-01T08:20:47;3.77;;;3.47;;
10311;SDS011;5201;48.776;9.128;2023-05-01T08:23:16;4.17;;;3.20;;
10311;SDS011;5201;48.776;9.128;2023-05-01T08:25:42;4.33;;;3.40;;
10311;SDS011;5201;48.776;9.128;2023-05-01T08:28:11;5.43;;;3.23;;
10311;SDS011;5201;48.776;9.128;2023-05-01T08:30:37;3.23;;;2.93;;
10311;SDS011;5201;48.776;9.128;2023-05-01T08:33:03;5.40;;;3.10;;
10311;SDS011;5201;48.776;9.128;2023-05-01T08:35:28;5.27;;;3.17;;
10311;SDS011;5201;48.776;9.128;2023-05-01T08:37:54;4.13;;;2.70;;
10311;SDS011;5201;48.776;9.128;2023-05-01T08:40:20;2.83;;;2.40;;
10311;SDS011;5201;48.776;9.128;2023-05-01T08:42:47;5.63;;;3.20;;
10311;SDS011;5201;48.776;9.128;2023-05-01T08:45:13;4.63;;;2.50;;
10311;SDS011;5201;48.776;9.128;2023-05-01T08:47:41;2.57;;;2.00;;
10311;SDS011;5201;48.776;9.128;2023-05-01T08:50:10;3.00;;;2.50;;
10311;SDS011;5201;48.776;9.128;2023-05-01T08:52:41;3.27;;;2.37;;
10311;SDS011;5201;48.776;9.128;2023-05-01T08:55:11;2.33;;;2.17;;
10311;SDS011;5201;48.776;9.128;2023-05-01T08:57:38;3.10;;;2.20;;
10311;SDS011;5201;48.776;9.128;2023-05-01T09:00:08;4.00;;;2.77;;
10311;SDS011;5201;48.776;9.128;2023-05-01T09:02:38;4.73;;;2.70;;
10311;SDS011;5201;48.776;9.128;2023-05-01T09:05:05;2.60;;;2.40;;
10311;SDS011;5201;48.776;9.128;2023-05-01T09:07:32;3.07;;;2.30;;
10311;SDS011;5201;48.776;9.128;2023-05-01T09:09:58;3.47;;;2.23;;
10311;SDS011;5201;48.776;9.128;2023-05-01T09:12:24;2.87;;;2.20;;
10311;SDS011;5201;48.776;9.128;2023-05-01T09:14:51;3.07;;;2.17;;
10311;SDS011;5201;48.776;9.128;2023-05-01T09:17:18;4.03;;;2.53;;
10311;SDS011;5201;48.776;9.128;2023-05-01T09:19:45;3.00;;;2.17;;
10311;SDS011;5201;48.776;9.128;2023-05-01T09:22:12;2.37;;;1.90;;
10311;SDS011;5201;48.776;9.128;2023-05-01T09:24:38;2.67;;;2.10;;
10311;SDS011;5201;48.776;9.128;2023-05-01T09:27:04;2.43;;;2.20;;
10311;SDS011;5201;48.776;9.128;2023-05-01T09:29:37;4.13;;;2.00;;
10311;SDS011;5201;48.776;9.128;2023-05-01T09:32:19;3.13;;;2.37;;
10311;SDS011;5201;48.776;9.128;2023-05-01T09:34:49;2.80;;;2.50;;
10311;SDS011;5201;48.776;9.128;2023-05-01T09:42:49;3.83;;;3.03;;
10311;SDS011;5201;48.776;9.128;2023-05-01T09:45:16;4.63;;;2.80;;
10311;SDS011;5201;48.776;9.128;2023-05-01T09:47:43;3.20;;;2.60;;
10311;SDS011;5201;48.776;9.128;2023-05-01T09:50:11;4.20;;;3.20;;
10311;SDS011;5201;48.776;9.128;2023-05-01T09:52:53;3.80;;;2.60;;
10311;SDS011;5201;48.776;9.128;2023-05-01T09:55:18;2.73;;;2.53;;
10311;SDS011;5201;48.776;9.128;2023-05-01T09:57:45;6.03;;;3.00;;
10311;SDS011;5201;48.776;9.128;2023-05-01T10:00:12;6.20;;;2.77;;
10311;SDS011;5201;48.776;9.128;2023-05-01T10:02:44;3.63;;;3.03;;
10311;SDS011;5201;48.776;9.128;2023-05-01T10:05:11;2.70;;;2.50;;
10311;SDS011;5201;48.776;9.128;2023-05-01T10:07:37;4.73;;;2.97;;
10311;SDS011;5201;48.776;9.128;2023-05-01T10:10:19;4.13;;;2.90;;
10311;SDS011;5201;48.776;9.128;2023-05-01T10:12:45;3.47;;;3.07;;
10311;SDS011;5201;48.776;9.128;2023-05-01T10:15:12;5.47;;;3.53;;
10311;SDS011;5201;48.776;9.128;2023-05-01T10:17:39;3.70;;;2.90;;
10311;SDS011;5201;48.776;9.128;2023-05-01T10:20:06;5.47;;;3.30;;
10311;SDS011;5201;48.776;9.128;2023-05-01T10:22:33;4.03;;;3.33;;
10311;SDS011;5201;48.776;9.128;2023-05-01T10:24:59;5.37;;;3.80;;
10311;SDS011;5201;48.776;9.128;2023-05-01T10:27:26;5.10;;;3.27;;
10311;SDS011;5201;48.776;9.128;2023-05-01T10:29:52;5.00;;;3.13;;
10311;SDS011;5201;48.776;9.128;2023-05-01T10:32:18;7.43;;;3.63;;
10311;SDS011;5201;48.776;9.128;2023-05-01T10:34:46;5.40;;;3.53;;
10311;SDS011;5201;48.776;9.128;2023-05-01T10:37:21;7.70;;;3.90;;
10311;SDS011;5201;48.776;9.128;2023-05-01T10:39:53;5.40;;;4.07;;
10311;SDS011;5201;48.776;9.128;2023-05-01T10:42:19;7.77;;;3.30;;
10311;SDS011;5201;48.776;9.128;2023-05-01T10:44:44;3.93;;;3.07;;
10311;SDS011;5201;48.776;9.128;2023-05-01T10:53:09;3.90;;;3.33;;
10311;SDS011;5201;48.776;9.128;2023-05-01T10:55:37;6.60;;;3.77;;
10311;SDS011;5201;48.776;9.128;2023-05-01T10:58:04;4.87;;;3.70;;
10311;SDS011;5201;48.776;9.128;2023-05-01T11:00:30;4.40;;;3.70;;
10311;SDS011;5201;48.776;9.128;2023-05-01T11:10:57;7.30;;;3.70;;
10311;SDS011;5201;48.776;9.128;2023-05-01T11:19:03;6.73;;;3.60;;
10311;SDS011;5201;48.776;9.128;2023-05-01T11:21:29;7.87;;;3.63;;
10311;SDS011;5201;48.776;9.128;2023-05-01T11:24:04;5.47;;;2.57;;
10311;SDS011;5201;48.776;9.128;2023-05-01T11:26:31;7.87;;;3.83;;
10311;SDS011;5201;48.776;9.128;2023-05-01T11:28:57;5.00;;;3.40;;
10311;SDS011;5201;48.776;9.128;2023-05-01T11:31:27;4.27;;;3.87;;
10311;SDS011;5201;48.776;9.128;2023-05-01T11:33:56;4.30;;;3.77;;
10311;SDS011;5201;48.776;9.128;2023-05-01T11:36:23;6.13;;;4.10;;
10311;SDS011;5201;48.776;9.128;2023-05-01T11:38:55;5.17;;;4.33;;
10311;SDS011;5201;48.776;9.128;2023-05-01T11:41:24;7.27;;;4.20;;
10311;SDS011;5201;48.776;9.128;2023-05-01T11:43:51;5.40;;;3.97;;
10311;SDS011;5201;48.776;9.128;2023-05-01T11:48:54;6.90;;;4.20;;
10311;SDS011;5201;48.776;9.128;2023-05-01T11:51:21;5.97;;;3.80;;
10311;SDS011;5201;48.776;9.128;2023-05-01T11:54:00;4.43;;;4.00;;
10311;SDS011;5201;48.776;9.128;2023-05-01T11:56:30;4.67;;;3.93;;
10311;SDS011;5201;48.776;9.128;2023-05-01T11:58:57;7.27;;;4.90;;
10311;SDS011;5201;48.776;9.128;2023-05-01T12:01:37;9.27;;;4.40;;
10311;SDS011;5201;48.776;9.128;2023-05-01T12:04:05;5.17;;;4.20;;
10311;SDS011;5201;48.776;9.128;2023-05-01T12:06:37;6.03;;;4.10;;
10311;SDS011;5201;48.776;9.128;2023-05-01T12:09:09;4.40;;;4.00;;
10311;SDS011;5201;48.776;9.128;2023-05-01T12:11:45;7.07;;;4.20;;
10311;SDS011;5201;48.776;9.128;2023-05-01T12:14:13;6.50;;;4.87;;
10311;SDS011;5201;48.776;9.128;2023-05-01T12:16:39;6.87;;;4.23;;
10311;SDS011;5201;48.776;9.128;2023-05-01T12:19:06;4.73;;;4.30;;
10311;SDS011;5201;48.776;9.128;2023-05-01T12:21:32;5.43;;;4.37;;
10311;SDS011;5201;48.776;9.128;2023-05-01T12:24:09;8.70;;;4.57;;
10311;SDS011;5201;48.776;9.128;2023-05-01T12:26:40;4.10;;;3.70;;
10311;SDS011;5201;48.776;9.128;2023-05-01T12:29:07;5.43;;;4.00;;
10311;SDS011;5201;48.776;9.128;2023-05-01T12:31:33;4.23;;;3.67;;
10311;SDS011;5201;48.776;9.128;2023-05-01T12:34:04;3.77;;;3.47;;
10311;SDS011;5201;48.776;9.128;2023-05-01T12:36:32;7.53;;;4.47;;
10311;SDS011;5201;48.776;9.128;2023-05-01T12:39:10;4.70;;;3.93;;
10311;SDS011;5201;48.776;9.128;2023-05-01T12:41:37;3.80;;;3.40;;
10311;SDS011;5201;48.776;9.128;2023-05-01T12:44:20;5.67;;;3.63;;
10311;SDS011;5201;48.776;9.128;2023-05-01T12:46:53;6.43;;;3.47;;
10311;SDS011;5201;48.776;9.128;2023-05-01T12:49:22;4.83;;;3.80;;
10311;SDS011;5201;48.776;9.128;2023-05-01T12:51:48;4.23;;;3.83;;
10311;SDS011;5201;48.776;9.128;2023-05-01T12:54:21;5.47;;;3.93;;
10311;SDS011;5201;48.776;9.128;2023-05-01T12:56:48;5.40;;;4.03;;
10311;SDS011;5201;48.776;9.128;2023-05-01T12:59:23;5.07;;;3.90;;
10311;SDS011;5201;48.776;9.128;2023-05-01T13:01:57;4.63;;;3.50;;
10311;SDS011;5201;48.776;9.128;2023-05-01T13:04:25;5.57;;;4.20;;
10311;SDS011;5201;48.776;9.128;2023-05-01T13:06:54;4.00;;;3.70;;
10311;SDS011;5201;48.776;9.128;2023-05-01T13:09:22;7.27;;;3.60;;
10311;SDS011;5201;48.776;9.128;2023-05-01T13:12:06;4.93;;;3.30;;
10311;SDS011;5201;48.776;9.128;2023-05-01T13:14:40;5.07;;;3.70;;
10311;SDS011;5201;48.776;9.128;2023-05-01T13:17:09;6.10;;;4.87;;
10311;SDS011;5201;48.776;9.128;2023-05-01T13:19:35;7.93;;;5.50;;
10311;SDS011;5201;48.776;9.128;2023-05-01T13:22:04;6.77;;;4.10;;
10311;SDS011;5201;48.776;9.128;2023-05-01T13:24:40;5.27;;;3.60;;
10311;SDS011;5201;48.776;9.128;2023-05-01T13:27:10;5.67;;;3.57;;
10311;SDS011;5201;48.776;9.128;2023-05-01T13:29:37;5.23;;;3.67;;
10311;SDS011;5201;48.776;9.128;2023-05-01T13:32:04;4.63;;;3.53;;
10311;SDS011;5201;48.776;9.128;2023-05-01T13:34:30;5.60;;;4.40;;
10311;SDS011;5201;48.776;9.128;2023-05-01T13:36:57;7.43;;;4.07;;
10311;SDS011;5201;48.776;9.128;2023-05-01T13:39:24;5.07;;;4.20;;
10311;SDS011;5201;48.776;9.128;2023-05-01T13:41:50;14.97;;;7.53;;
10311;SDS011;5201;48.776;9.128;2023-05-01T13:44:17;8.13;;;5.20;;
10311;SDS011;5201;48.776;9.128;2023-05-01T13:46:43;6.17;;;4.97;;
10311;SDS011;5201;48.776;9.128;2023-05-01T13:49:10;5.10;;;3.97;;
10311;SDS011;5201;48.776;9.128;2023-05-01T13:51:41;5.37;;;3.80;;
10311;SDS011;5201;48.776;9.128;2023-05-01T13:54:09;6.03;;;3.60;;
10311;SDS011;5201;48.776;9.128;2023-05-01T13:56:36;5.43;;;3.83;;
10311;SDS011;5201;48.776;9.128;2023-05-01T13:59:03;4.70;;;3.70;;
10311;SDS011;5201;48.776;9.128;2023-05-01T14:01:29;3.90;;;3.50;;
10311;SDS011;5201;48.776;9.128;2023-05-01T14:03:55;6.97;;;3.77;;
10311;SDS011;5201;48.776;9.128;2023-05-01T14:06:27;3.90;;;3.27;;
10311;SDS011;5201;48.776;9.128;2023-05-01T14:08:54;3.00;;;2.40;;
10311;SDS011;5201;48.776;9.128;2023-05-01T14:11:22;7.00;;;2.37;;
10311;SDS011;5201;48.776;9.128;2023-05-01T14:13:48;2.43;;;2.23;;
10311;SDS011;5201;48.776;9.128;2023-05-01T14:18:51;2.17;;;2.03;;
10311;SDS011;5201;48.776;9.128;2023-05-01T14:21:24;2.97;;;2.37;;
10311;SDS011;5201;48.776;9.128;2023-05-01T14:23:54;4.00;;;2.23;;
10311;SDS011;5201;48.776;9.128;2023-05-01T14:26:21;2.73;;;1.63;;
10311;SDS011;5201;48.776;9.128;2023-05-01T14:28:50;3.43;;;1.70;;
10311;SDS011;5201;48.776;9.128;2023-05-01T14:31:23;3.13;;;2.10;;
10311;SDS011;5201;48.776;9.128;2023-05-01T14:34:01;2.07;;;1.67;;
10311;SDS011;5201;48.776;9.128;2023-05-01T14:36:28;1.70;;;1.60;;
10311;SDS011;5201;48.776;9.128;2023-05-01T14:38:58;4.27;;;1.73;;
10311;SDS011;5201;48.776;9.128;2023-05-01T14:41:24;2.47;;;1.70;;
10311;SDS011;5201;48.776;9.128;2023-05-01T14:43:50;1.90;;;1.80;;
10311;SDS011;5201;48.776;9.128;2023-05-01T14:46:29;3.97;;;2.47;;
10311;SDS011;5201;48.776;9.128;2023-05-01T14:48:55;3.07;;;2.53;;
10311;SDS011;5201;48.776;9.128;2023-05-01T14:51:21;3.80;;;2.73;;
10311;SDS011;5201;48.776;9.128;2023-05-01T14:53:46;2.83;;;2.63;;
10311;SDS011;5201;48.776;9.128;2023-05-01T14:56:12;4.53;;;3.50;;
10311;SDS011;5201;48.776;9.128;2023-05-01T14:58:38;4.20;;;2.87;;
10311;SDS011;5201;48.776;9.128;2023-05-01T15:01:04;4.00;;;3.10;;
10311;SDS011;5201;48.776;9.128;2023-05-01T15:03:30;3.67;;;3.27;;
10311;SDS011;5201;48.776;9.128;2023-05-01T15:05:56;3.60;;;3.30;;
10311;SDS011;5201;48.776;9.128;2023-05-01T15:08:22;4.20;;;3.57;;
10311;SDS011;5201;48.776;9.128;2023-05-01T15:10:48;4.17;;;3.67;;
10311;SDS011;5201;48.776;9.128;2023-05-01T15:13:16;5.83;;;4.30;;
10311;SDS011;5201;48.776;9.128;2023-05-01T15:15:43;5.63;;;3.70;;
10311;SDS011;5201;48.776;9.128;2023-05-01T15:18:09;6.47;;;4.30;;
10311;SDS011;5201;48.776;9.128;2023-05-01T15:20:35;6.00;;;4.30;;
10311;SDS011;5201;48.776;9.128;2023-05-01T15:23:01;4.00;;;3.60;;
10311;SDS011;5201;48.776;9.128;2023-05-01T15:25:27;3.93;;;3.33;;
10311;SDS011;5201;48.776;9.128;2023-05-01T15:27:53;7.57;;;5.37;;
10311;SDS011;5201;48.776;9.128;2023-05-01T15:30:19;7.03;;;5.27;;
10311;SDS011;5201;48.776;9.128;2023-05-01T15:32:45;6.57;;;5.73;;
10311;SDS011;5201;48.776;9.128;2023-05-01T15:35:11;7.47;;;5.60;;
10311;SDS011;5201;48.776;9.128;2023-05-01T15:37:37;8.07;;;5.40;;
10311;SDS011;5201;48.776;9.128;2023-05-01T15:40:02;7.53;;;5.23;;
10311;SDS011;5201;48.776;9.128;2023-05-01T15:42:29;7.17;;;5.67;;
10311;SDS011;5201;48.776;9.128;2023-05-01T15:44:55;9.50;;;5.33;;
10311;SDS011;5201;48.776;9.128;2023-05-01T15:47:20;7.10;;;4.30;;
10311;SDS011;5201;48.776;9.128;2023-05-01T15:49:46;6.00;;;4.70;;
10311;SDS011;5201;48.776;9.128;2023-05-01T15:52:12;5.37;;;3.83;;